sensor_id;sensor_type;location;lat;lon;timestamp;P1;durP1;ratioP1;P2;durP2;ratioP2
43327;SDS011;28923;45.412;10.852;2023-05-02T00:00:45;2.63;;;1.10;;
43327;SDS011;28923;45.412;10.852;2023-05-02T00:03:11;1.30;;;1.20;;
43327;SDS011;28923;45.412;10.852;2023-05-02T00:05:36;2.03;;;1.38;;
43327;SDS011;28923;45.412;10.852;2023-05-02T00:08:02;2.03;;;1.40;;
43327;SDS011;28923;45.412;10.852;2023-05-02T00:10:27;1.60;;;1.10;;
43327;SDS011;28923;45.412;10.852;2023-05-02T00:12:53;1.23;;;1.10;;
43327;SDS011;28923;45.412;10.852;2023-05-02T00:15:18;1.88;;;1.20;;
43327;SDS011;28923;45.412;10.852;2023-05-02T00:17:43;2.35;;;1.30;;
43327;SDS011;28923;45.412;10.852;2023-05-02T00:20:10;1.52;;;1.10;;
43327;SDS011;28923;45.412;10.852;2023-05-02T00:22:38;1.75;;;1.17;;
43327;SDS011;28923;45.412;10.852;2023-05-02T00:25:05;1.30;;;1.10;;
43327;SDS011;28923;45.412;10.852;2023-05-02T00:27:30;1.40;;;0.90;;
43327;SDS011;28923;45.412;10.852;2023-05-02T00:29:57;1.58;;;1.15;;
43327;SDS011;28923;45.412;10.852;2023-05-02T00:32:24;1.15;;;1.00;;
43327;SDS011;28923;45.412;10.852;2023-05-02T00:34:50;0.82;;;0.80;;
43327;SDS011;28923;45.412;10.852;2023-05-02T00:37:15;0.75;;;0.75;;
43327;SDS011;28923;45.412;10.852;2023-05-02T00:39:41;0.80;;;0.80;;
43327;SDS011;28923;45.412;10.852;2023-05-02T00:42:06;1.25;;;1.02;;
43327;SDS011;28923;45.412;10.852;2023-05-02T00:44:32;1.20;;;1.05;;
43327;SDS011;28923;45.412;10.852;2023-05-02T00:46:57;1.20;;;0.85;;
43327;SDS011;28923;45.412;10.852;2023-05-02T00:49:25;1.80;;;1.30;;
43327;SDS011;28923;45.412;10.852;2023-05-02T00:51:52;1.33;;;1.00;;
43327;SDS011;28923;45.412;10.852;2023-05-02T00:54:17;1.40;;;1.10;;
43327;SDS011;28923;45.412;10.852;2023-05-02T00:56:43;1.42;;;0.80;;
43327;SDS011;28923;45.412;10.852;2023-05-02T00:59:08;1.08;;;0.98;;
43327;SDS011;28923;45.412;10.852;2023-05-02T01:02:21;0.70;;;0.70;;
43327;SDS011;28923;45.412;10.852;2023-05-02T01:14:49;2.22;;;1.02;;
43327;SDS011;28923;45.412;10.852;2023-05-02T01:17:18;1.15;;;0.85;;
43327;SDS011;28923;45.412;10.852;2023-05-02T01:19:46;0.85;;;0.80;;
43327;SDS011;28923;45.412;10.852;2023-05-02T01:22:13;1.42;;;1.00;;
43327;SDS011;28923;45.412;10.852;2023-05-02T01:24:42;0.90;;;0.80;;
43327;SDS011;28923;45.412;10.852;2023-05-02T01:29:44;0.85;;;0.80;;
43327;SDS011;28923;45.412;10.852;2023-05-02T01:32:14;0.82;;;0.60;;
43327;SDS011;28923;45.412;10.852;2023-05-02T01:34:40;0.95;;;0.80;;
43327;SDS011;28923;45.412;10.852;2023-05-02T01:37:08;0.73;;;0.73;;
43327;SDS011;28923;45.412;10.852;2023-05-02T01:39:35;0.80;;;0.70;;
43327;SDS011;28923;45.412;10.852;2023-05-02T01:42:01;1.15;;;0.75;;
43327;SDS011;28923;45.412;10.852;2023-05-02T01:44:28;1.00;;;0.70;;
43327;SDS011;28923;45.412;10.852;2023-05-02T01:46:54;0.85;;;0.70;;
43327;SDS011;28923;45.412;10.852;2023-05-02T01:49:20;1.10;;;0.70;;
43327;SDS011;28923;45.412;10.852;2023-05-02T01:51:47;0.93;;;0.70;;
43327;SDS011;28923;45.412;10.852;2023-05-02T01:54:14;0.70;;;0.60;;
43327;SDS011;28923;45.412;10.852;2023-05-02T01:56:40;0.50;;;0.50;;
43327;SDS011;28923;45.412;10.852;2023-05-02T01:59:08;0.93;;;0.57;;
43327;SDS011;28923;45.412;10.852;2023-05-02T02:01:35;0.50;;;0.50;;
43327;SDS011;28923;45.412;10.852;2023-05-02T02:04:01;0.93;;;0.70;;
43327;SDS011;28923;45.412;10.852;2023-05-02T02:06:29;0.68;;;0.65;;
43327;SDS011;28923;45.412;10.852;2023-05-02T02:08:55;1.10;;;0.65;;
43327;SDS011;28923;45.412;10.852;2023-05-02T02:11:23;0.63;;;0.63;;
43327;SDS011;28923;45.412;10.852;2023-05-02T02:13:52;0.70;;;0.63;;
43327;SDS011;28923;45.412;10.852;2023-05-02T02:16:23;0.90;;;0.47;;
43327;SDS011;28923;45.412;10.852;2023-05-02T02:18:49;0.60;;;0.60;;
43327;SDS011;28923;45.412;10.852;2023-05-02T02:21:16;0.50;;;0.50;;
43327;SDS011;28923;45.412;10.852;2023-05-02T02:23:42;0.85;;;0.60;;
43327;SDS011;28923;45.412;10.852;2023-05-02T02:26:11;0.80;;;0.40;;
43327;SDS011;28923;45.412;10.852;2023-05-02T02:28:37;1.10;;;0.60;;
43327;SDS011;28923;45.412;10.852;2023-05-02T02:31:03;0.52;;;0.50;;
43327;SDS011;28923;45.412;10.852;2023-05-02T02:33:29;0.50;;;0.40;;
43327;SDS011;28923;45.412;10.852;2023-05-02T02:35:58;0.55;;;0.43;;
43327;SDS011;28923;45.412;10.852;2023-05-02T02:41:01;0.60;;;0.60;;
43327;SDS011;28923;45.412;10.852;2023-05-02T02:43:32;0.50;;;0.50;;
43327;SDS011;28923;45.412;10.852;2023-05-02T02:46:13;0.52;;;0.52;;
43327;SDS011;28923;45.412;10.852;2023-05-02T02:48:48;0.93;;;0.50;;
43327;SDS011;28923;45.412;10.852;2023-05-02T02:51:21;0.35;;;0.35;;
43327;SDS011;28923;45.412;10.852;2023-05-02T02:53:59;0.63;;;0.52;;
43327;SDS011;28923;45.412;10.852;2023-05-02T02:56:40;0.60;;;0.60;;
43327;SDS011;28923;45.412;10.852;2023-05-02T02:59:19;0.43;;;0.43;;
43327;SDS011;28923;45.412;10.852;2023-05-02T03:01:47;0.40;;;0.40;;
43327;SDS011;28923;45.412;10.852;2023-05-02T03:04:15;0.40;;;0.40;;
43327;SDS011;28923;45.412;10.852;2023-05-02T03:06:42;0.20;;;0.20;;
43327;SDS011;28923;45.412;10.852;2023-05-02T03:09:15;0.30;;;0.30;;
43327;SDS011;28923;45.412;10.852;2023-05-02T03:11:45;1.10;;;0.35;;
43327;SDS011;28923;45.412;10.852;2023-05-02T03:14:12;0.50;;;0.40;;
43327;SDS011;28923;45.412;10.852;2023-05-02T03:16:38;0.30;;;0.30;;
43327;SDS011;28923;45.412;10.852;2023-05-02T03:19:08;0.60;;;0.45;;
43327;SDS011;28923;45.412;10.852;2023-05-02T03:21:33;0.35;;;0.30;;
43327;SDS011;28923;45.412;10.852;2023-05-02T03:24:06;0.40;;;0.28;;
43327;SDS011;28923;45.412;10.852;2023-05-02T03:26:32;0.40;;;0.40;;
43327;SDS011;28923;45.412;10.852;2023-05-02T03:28:57;0.40;;;0.30;;
43327;SDS011;28923;45.412;10.852;2023-05-02T03:31:29;0.45;;;0.45;;
43327;SDS011;28923;45.412;10.852;2023-05-02T03:33:55;0.25;;;0.25;;
43327;SDS011;28923;45.412;10.852;2023-05-02T03:36:21;0.52;;;0.40;;
43327;SDS011;28923;45.412;10.852;2023-05-02T03:38:46;0.50;;;0.40;;
43327;SDS011;28923;45.412;10.852;2023-05-02T03:41:12;0.90;;;0.50;;
43327;SDS011;28923;45.412;10.852;2023-05-02T03:43:39;0.50;;;0.40;;
43327;SDS011;28923;45.412;10.852;2023-05-02T03:46:05;0.30;;;0.30;;
43327;SDS011;28923;45.412;10.852;2023-05-02T03:48:37;0.30;;;0.30;;
43327;SDS011;28923;45.412;10.852;2023-05-02T03:51:03;0.40;;;0.40;;
43327;SDS011;28923;45.412;10.852;2023-05-02T03:53:35;0.50;;;0.40;;
43327;SDS011;28923;45.412;10.852;2023-05-02T03:56:01;0.32;;;0.32;;
43327;SDS011;28923;45.412;10.852;2023-05-02T03:58:37;0.60;;;0.50;;
43327;SDS011;28923;45.412;10.852;2023-05-02T04:01:03;0.40;;;0.30;;
43327;SDS011;28923;45.412;10.852;2023-05-02T04:03:28;0.38;;;0.35;;
43327;SDS011;28923;45.412;10.852;2023-05-02T04:05:54;0.20;;;0.20;;
43327;SDS011;28923;45.412;10.852;2023-05-02T04:08:19;0.45;;;0.22;;
43327;SDS011;28923;45.412;10.852;2023-05-02T04:10:45;0.20;;;0.20;;
43327;SDS011;28923;45.412;10.852;2023-05-02T04:13:12;0.60;;;0.30;;
43327;SDS011;28923;45.412;10.852;2023-05-02T04:15:40;0.40;;;0.40;;
43327;SDS011;28923;45.412;10.852;2023-05-02T04:18:06;0.52;;;0.30;;
43327;SDS011;28923;45.412;10.852;2023-05-02T04:20:32;0.35;;;0.30;;
43327;SDS011;28923;45.412;10.852;2023-05-02T04:22:57;0.38;;;0.32;;
43327;SDS011;28923;45.412;10.852;2023-05-02T04:25:23;0.52;;;0.40;;
43327;SDS011;28923;45.412;10.852;2023-05-02T04:27:51;0.20;;;0.20;;
43327;SDS011;28923;45.412;10.852;2023-05-02T04:30:20;0.40;;;0.30;;
43327;SDS011;28923;45.412;10.852;2023-05-02T04:32:54;0.30;;;0.30;;
43327;SDS011;28923;45.412;10.852;2023-05-02T04:35:20;0.85;;;0.40;;
43327;SDS011;28923;45.412;10.852;2023-05-02T04:37:46;0.77;;;0.30;;
43327;SDS011;28923;45.412;10.852;2023-05-02T04:40:11;0.30;;;0.30;;
43327;SDS011;28923;45.412;10.852;2023-05-02T04:42:37;0.63;;;0.40;;
43327;SDS011;28923;45.412;10.852;2023-05-02T04:45:15;0.28;;;0.28;;
43327;SDS011;28923;45.412;10.852;2023-05-02T04:47:42;0.30;;;0.30;;
43327;SDS011;28923;45.412;10.852;2023-05-02T04:50:08;0.30;;;0.30;;
43327;SDS011;28923;45.412;10.852;2023-05-02T04:52:34;0.30;;;0.20;;
43327;SDS011;28923;45.412;10.852;2023-05-02T04:54:59;0.60;;;0.20;;
43327;SDS011;28923;45.412;10.852;2023-05-02T04:57:24;0.30;;;0.30;;
43327;SDS011;28923;45.412;10.852;2023-05-02T04:59:54;1.48;;;0.20;;
43327;SDS011;28923;45.412;10.852;2023-05-02T05:02:19;0.40;;;0.32;;
43327;SDS011;28923;45.412;10.852;2023-05-02T05:04:45;0.40;;;0.38;;
43327;SDS011;28923;45.412;10.852;2023-05-02T05:07:11;1.20;;;0.50;;
43327;SDS011;28923;45.412;10.852;2023-05-02T05:09:36;1.42;;;0.30;;
43327;SDS011;28923;45.412;10.852;2023-05-02T05:12:02;0.90;;;0.30;;
43327;SDS011;28923;45.412;10.852;2023-05-02T05:14:29;8.20;;;0.70;;
43327;SDS011;28923;45.412;10.852;2023-05-02T05:16:55;4.47;;;0.50;;
43327;SDS011;28923;45.412;10.852;2023-05-02T05:19:21;8.10;;;0.73;;
43327;SDS011;28923;45.412;10.852;2023-05-02T05:21:47;0.80;;;0.50;;
43327;SDS011;28923;45.412;10.852;2023-05-02T05:24:15;5.80;;;0.60;;
43327;SDS011;28923;45.412;10.852;2023-05-02T05:26:41;4.05;;;0.65;;
43327;SDS011;28923;45.412;10.852;2023-05-02T05:29:07;3.20;;;0.73;;
43327;SDS011;28923;45.412;10.852;2023-05-02T05:31:37;3.78;;;0.50;;
43327;SDS011;28923;45.412;10.852;2023-05-02T05:34:04;3.30;;;0.40;;
43327;SDS011;28923;45.412;10.852;2023-05-02T05:36:29;2.95;;;0.43;;
43327;SDS011;28923;45.412;10.852;2023-05-02T05:38:55;3.95;;;0.40;;
43327;SDS011;28923;45.412;10.852;2023-05-02T05:41:21;3.08;;;0.68;;
43327;SDS011;28923;45.412;10.852;2023-05-02T05:43:52;1.88;;;0.50;;
43327;SDS011;28923;45.412;10.852;2023-05-02T05:46:18;3.50;;;0.68;;
43327;SDS011;28923;45.412;10.852;2023-05-02T05:48:44;1.45;;;0.80;;
43327;SDS011;28923;45.412;10.852;2023-05-02T05:51:11;2.72;;;0.60;;
43327;SDS011;28923;45.412;10.852;2023-05-02T05:53:38;3.40;;;0.65;;
43327;SDS011;28923;45.412;10.852;2023-05-02T05:56:09;3.92;;;0.50;;
43327;SDS011;28923;45.412;10.852;2023-05-02T05:58:37;5.85;;;0.65;;
43327;SDS011;28923;45.412;10.852;2023-05-02T06:01:03;5.00;;;0.75;;
43327;SDS011;28923;45.412;10.852;2023-05-02T06:03:29;3.67;;;0.60;;
43327;SDS011;28923;45.412;10.852;2023-05-02T06:05:54;1.95;;;0.60;;
43327;SDS011;28923;45.412;10.852;2023-05-02T06:08:20;1.67;;;0.52;;
43327;SDS011;28923;45.412;10.852;2023-05-02T06:10:46;3.15;;;0.60;;
43327;SDS011;28923;45.412;10.852;2023-05-02T06:13:12;3.42;;;0.93;;
43327;SDS011;28923;45.412;10.852;2023-05-02T06:15:40;2.60;;;0.50;;
43327;SDS011;28923;45.412;10.852;2023-05-02T06:18:06;1.15;;;0.40;;
43327;SDS011;28923;45.412;10.852;2023-05-02T06:20:31;3.08;;;0.50;;
43327;SDS011;28923;45.412;10.852;2023-05-02T06:22:57;5.13;;;0.60;;
43327;SDS011;28923;45.412;10.852;2023-05-02T06:25:23;5.20;;;0.55;;
43327;SDS011;28923;45.412;10.852;2023-05-02T06:27:56;1.33;;;0.50;;
43327;SDS011;28923;45.412;10.852;2023-05-02T06:30:23;3.33;;;0.57;;
43327;SDS011;28923;45.412;10.852;2023-05-02T06:32:50;2.30;;;0.57;;
43327;SDS011;28923;45.412;10.852;2023-05-02T06:35:16;2.03;;;0.60;;
43327;SDS011;28923;45.412;10.852;2023-05-02T06:37:41;4.85;;;0.50;;
43327;SDS011;28923;45.412;10.852;2023-05-02T06:40:07;3.58;;;0.50;;
43327;SDS011;28923;45.412;10.852;2023-05-02T06:42:34;3.83;;;0.52;;
43327;SDS011;28923;45.412;10.852;2023-05-02T06:45:00;2.28;;;0.40;;
43327;SDS011;28923;45.412;10.852;2023-05-02T06:47:25;1.25;;;0.65;;
43327;SDS011;28923;45.412;10.852;2023-05-02T06:49:51;2.80;;;0.68;;
43327;SDS011;28923;45.412;10.852;2023-05-02T06:52:17;6.28;;;0.73;;
43327;SDS011;28923;45.412;10.852;2023-05-02T06:54:42;3.28;;;0.95;;
43327;SDS011;28923;45.412;10.852;2023-05-02T06:57:08;2.30;;;0.60;;
43327;SDS011;28923;45.412;10.852;2023-05-02T06:59:35;4.88;;;0.95;;
43327;SDS011;28923;45.412;10.852;2023-05-02T07:02:00;2.15;;;0.52;;
43327;SDS011;28923;45.412;10.852;2023-05-02T07:04:26;4.53;;;0.50;;
43327;SDS011;28923;45.412;10.852;2023-05-02T07:06:51;7.13;;;0.80;;
43327;SDS011;28923;45.412;10.852;2023-05-02T07:09:16;6.38;;;0.50;;
43327;SDS011;28923;45.412;10.852;2023-05-02T07:11:42;1.85;;;0.82;;
43327;SDS011;28923;45.412;10.852;2023-05-02T07:14:07;2.40;;;0.47;;
43327;SDS011;28923;45.412;10.852;2023-05-02T07:16:33;4.55;;;0.98;;
43327;SDS011;28923;45.412;10.852;2023-05-02T07:18:58;2.10;;;0.50;;
43327;SDS011;28923;45.412;10.852;2023-05-02T07:21:24;3.58;;;0.80;;
43327;SDS011;28923;45.412;10.852;2023-05-02T07:23:50;3.60;;;0.40;;
43327;SDS011;28923;45.412;10.852;2023-05-02T07:26:15;5.45;;;0.70;;
43327;SDS011;28923;45.412;10.852;2023-05-02T07:28:43;1.08;;;0.70;;
43327;SDS011;28923;45.412;10.852;2023-05-02T07:31:09;1.95;;;0.50;;
43327;SDS011;28923;45.412;10.852;2023-05-02T07:33:35;1.55;;;0.40;;
43327;SDS011;28923;45.412;10.852;2023-05-02T07:36:01;1.60;;;0.47;;
43327;SDS011;28923;45.412;10.852;2023-05-02T07:38:27;3.38;;;0.52;;
43327;SDS011;28923;45.412;10.852;2023-05-02T07:40:52;2.28;;;0.50;;
43327;SDS011;28923;45.412;10.852;2023-05-02T07:43:21;1.65;;;0.40;;
43327;SDS011;28923;45.412;10.852;2023-05-02T07:45:47;1.85;;;0.47;;
43327;SDS011;28923;45.412;10.852;2023-05-02T07:48:12;1.88;;;0.60;;
43327;SDS011;28923;45.412;10.852;2023-05-02T07:50:38;1.63;;;0.52;;
43327;SDS011;28923;45.412;10.852;2023-05-02T07:53:03;2.40;;;0.57;;
43327;SDS011;28923;45.412;10.852;2023-05-02T07:55:29;1.60;;;0.60;;
43327;SDS011;28923;45.412;10.852;2023-05-02T07:57:57;2.25;;;0.80;;
43327;SDS011;28923;45.412;10.852;2023-05-02T08:00:23;2.53;;;1.00;;
43327;SDS011;28923;45.412;10.852;2023-05-02T08:02:48;2.03;;;0.90;;
43327;SDS011;28923;45.412;10.852;2023-05-02T08:05:14;3.35;;;1.00;;
43327;SDS011;28923;45.412;10.852;2023-05-02T08:07:39;3.20;;;1.20;;
43327;SDS011;28923;45.412;10.852;2023-05-02T08:10:05;2.20;;;1.02;;
43327;SDS011;28923;45.412;10.852;2023-05-02T08:12:31;1.92;;;1.10;;
43327;SDS011;28923;45.412;10.852;2023-05-02T08:14:56;2.13;;;0.70;;
43327;SDS011;28923;45.412;10.852;2023-05-02T08:17:22;3.17;;;1.00;;
43327;SDS011;28923;45.412;10.852;2023-05-02T08:19:47;1.45;;;0.90;;
43327;SDS011;28923;45.412;10.852;2023-05-02T08:22:12;1.95;;;1.00;;
43327;SDS011;28923;45.412;10.852;2023-05-02T08:24:38;2.58;;;0.82;;
43327;SDS011;28923;45.412;10.852;2023-05-02T08:27:03;2.22;;;0.98;;
43327;SDS011;28923;45.412;10.852;2023-05-02T08:29:29;1.88;;;0.90;;
43327;SDS011;28923;45.412;10.852;2023-05-02T08:31:55;1.13;;;0.80;;
43327;SDS011;28923;45.412;10.852;2023-05-02T08:34:20;1.00;;;0.70;;
43327;SDS011;28923;45.412;10.852;2023-05-02T08:36:46;1.15;;;0.70;;
43327;SDS011;28923;45.412;10.852;2023-05-02T08:39:11;1.88;;;0.70;;
43327;SDS011;28923;45.412;10.852;2023-05-02T08:41:37;2.22;;;0.75;;
43327;SDS011;28923;45.412;10.852;2023-05-02T08:44:03;2.17;;;0.60;;
43327;SDS011;28923;45.412;10.852;2023-05-02T08:46:30;1.45;;;0.77;;
43327;SDS011;28923;45.412;10.852;2023-05-02T08:48:56;0.85;;;0.60;;
43327;SDS011;28923;45.412;10.852;2023-05-02T08:51:23;1.63;;;0.77;;
43327;SDS011;28923;45.412;10.852;2023-05-02T08:53:48;1.98;;;0.40;;
43327;SDS011;28923;45.412;10.852;2023-05-02T08:56:14;1.40;;;0.50;;
43327;SDS011;28923;45.412;10.852;2023-05-02T08:58:40;0.93;;;0.47;;
43327;SDS011;28923;45.412;10.852;2023-05-02T09:01:09;2.47;;;0.60;;
43327;SDS011;28923;45.412;10.852;2023-05-02T09:03:37;0.52;;;0.52;;
43327;SDS011;28923;45.412;10.852;2023-05-02T09:06:06;0.70;;;0.50;;
43327;SDS011;28923;45.412;10.852;2023-05-02T09:08:32;1.63;;;0.57;;
43327;SDS011;28923;45.412;10.852;2023-05-02T09:11:00;0.98;;;0.65;;
43327;SDS011;28923;45.412;10.852;2023-05-02T09:13:29;0.60;;;0.50;;
43327;SDS011;28923;45.412;10.852;2023-05-02T09:16:08;4.18;;;0.80;;
43327;SDS011;28923;45.412;10.852;2023-05-02T09:18:40;2.95;;;0.60;;
43327;SDS011;28923;45.412;10.852;2023-05-02T09:21:06;5.43;;;0.50;;
43327;SDS011;28923;45.412;10.852;2023-05-02T09:26:08;1.92;;;0.60;;
43327;SDS011;28923;45.412;10.852;2023-05-02T09:28:41;0.95;;;0.50;;
43327;SDS011;28923;45.412;10.852;2023-05-02T09:31:08;3.13;;;0.60;;
43327;SDS011;28923;45.412;10.852;2023-05-02T09:33:34;1.48;;;0.40;;
43327;SDS011;28923;45.412;10.852;2023-05-02T09:36:00;3.10;;;0.50;;
43327;SDS011;28923;45.412;10.852;2023-05-02T09:38:25;2.10;;;0.55;;
43327;SDS011;28923;45.412;10.852;2023-05-02T09:40:54;3.28;;;0.60;;
43327;SDS011;28923;45.412;10.852;2023-05-02T09:43:20;0.77;;;0.40;;
43327;SDS011;28923;45.412;10.852;2023-05-02T09:45:59;2.53;;;0.70;;
43327;SDS011;28923;45.412;10.852;2023-05-02T09:48:25;0.47;;;0.30;;
43327;SDS011;28923;45.412;10.852;2023-05-02T09:50:51;0.85;;;0.50;;
43327;SDS011;28923;45.412;10.852;2023-05-02T09:53:16;1.80;;;0.50;;
43327;SDS011;28923;45.412;10.852;2023-05-02T09:55:42;2.22;;;0.60;;
43327;SDS011;28923;45.412;10.852;2023-05-02T09:58:21;0.98;;;0.30;;
43327;SDS011;28923;45.412;10.852;2023-05-02T10:00:47;0.82;;;0.40;;
43327;SDS011;28923;45.412;10.852;2023-05-02T10:03:14;1.27;;;0.50;;
43327;SDS011;28923;45.412;10.852;2023-05-02T10:05:41;1.27;;;0.40;;
43327;SDS011;28923;45.412;10.852;2023-05-02T10:08:07;1.00;;;0.60;;
43327;SDS011;28923;45.412;10.852;2023-05-02T10:10:35;1.25;;;0.50;;
43327;SDS011;28923;45.412;10.852;2023-05-02T10:13:02;0.47;;;0.40;;
43327;SDS011;28923;45.412;10.852;2023-05-02T10:15:28;0.73;;;0.40;;
43327;SDS011;28923;45.412;10.852;2023-05-02T10:17:55;1.30;;;0.28;;
43327;SDS011;28923;45.412;10.852;2023-05-02T10:20:24;1.50;;;0.30;;
43327;SDS011;28923;45.412;10.852;2023-05-02T10:22:52;0.93;;;0.35;;
43327;SDS011;28923;45.412;10.852;2023-05-02T10:25:17;1.90;;;0.40;;
43327;SDS011;28923;45.412;10.852;2023-05-02T10:27:43;0.73;;;0.38;;
43327;SDS011;28923;45.412;10.852;2023-05-02T10:30:09;1.02;;;0.43;;
43327;SDS011;28923;45.412;10.852;2023-05-02T10:32:36;0.85;;;0.50;;
43327;SDS011;28923;45.412;10.852;2023-05-02T10:35:03;1.05;;;0.40;;
43327;SDS011;28923;45.412;10.852;2023-05-02T10:37:29;0.63;;;0.32;;
43327;SDS011;28923;45.412;10.852;2023-05-02T10:39:57;0.55;;;0.30;;
43327;SDS011;28923;45.412;10.852;2023-05-02T10:42:23;0.85;;;0.20;;
43327;SDS011;28923;45.412;10.852;2023-05-02T10:44:49;1.88;;;0.40;;
43327;SDS011;28923;45.412;10.852;2023-05-02T10:52:35;0.55;;;0.30;;
43327;SDS011;28923;45.412;10.852;2023-05-02T11:00:24;0.30;;;0.30;;
43327;SDS011;28923;45.412;10.852;2023-05-02T11:02:50;0.35;;;0.35;;
43327;SDS011;28923;45.412;10.852;2023-05-02T11:05:16;0.75;;;0.50;;
43327;SDS011;28923;45.412;10.852;2023-05-02T11:07:41;0.75;;;0.38;;
43327;SDS011;28923;45.412;10.852;2023-05-02T11:15:12;1.13;;;0.40;;
43327;SDS011;28923;45.412;10.852;2023-05-02T11:20:23;0.63;;;0.35;;
43327;SDS011;28923;45.412;10.852;2023-05-02T11:22:50;0.63;;;0.43;;
43327;SDS011;28923;45.412;10.852;2023-05-02T11:25:30;0.52;;;0.50;;
43327;SDS011;28923;45.412;10.852;2023-05-02T11:27:57;0.38;;;0.38;;
43327;SDS011;28923;45.412;10.852;2023-05-02T11:35:29;0.40;;;0.40;;
43327;SDS011;28923;45.412;10.852;2023-05-02T11:37:59;0.88;;;0.35;;
43327;SDS011;28923;45.412;10.852;2023-05-02T11:40:28;2.05;;;0.50;;
43327;SDS011;28923;45.412;10.852;2023-05-02T11:42:53;2.38;;;0.40;;
43327;SDS011;28923;45.412;10.852;2023-05-02T11:45:19;0.50;;;0.30;;
43327;SDS011;28923;45.412;10.852;2023-05-02T11:47:45;0.35;;;0.30;;
43327;SDS011;28923;45.412;10.852;2023-05-02T11:50:12;1.20;;;0.43;;
43327;SDS011;28923;45.412;10.852;2023-05-02T11:52:38;4.13;;;0.40;;
43327;SDS011;28923;45.412;10.852;2023-05-02T11:55:05;0.82;;;0.30;;
43327;SDS011;28923;45.412;10.852;2023-05-02T11:57:32;0.63;;;0.40;;
43327;SDS011;28923;45.412;10.852;2023-05-02T11:59:58;0.35;;;0.28;;
43327;SDS011;28923;45.412;10.852;2023-05-02T12:02:36;1.70;;;0.38;;
43327;SDS011;28923;45.412;10.852;2023-05-02T12:05:02;0.20;;;0.20;;
43327;SDS011;28923;45.412;10.852;2023-05-02T12:07:48;0.82;;;0.32;;
43327;SDS011;28923;45.412;10.852;2023-05-02T12:10:13;0.70;;;0.32;;
43327;SDS011;28923;45.412;10.852;2023-05-02T12:12:40;0.75;;;0.50;;
43327;SDS011;28923;45.412;10.852;2023-05-02T12:15:06;2.47;;;0.20;;
43327;SDS011;28923;45.412;10.852;2023-05-02T12:17:33;1.25;;;0.40;;
43327;SDS011;28923;45.412;10.852;2023-05-02T12:19:59;0.52;;;0.30;;
43327;SDS011;28923;45.412;10.852;2023-05-02T12:22:25;1.10;;;0.40;;
43327;SDS011;28923;45.412;10.852;2023-05-02T12:24:51;3.38;;;0.30;;
43327;SDS011;28923;45.412;10.852;2023-05-02T12:27:19;0.38;;;0.30;;
43327;SDS011;28923;45.412;10.852;2023-05-02T12:29:46;0.40;;;0.30;;
43327;SDS011;28923;45.412;10.852;2023-05-02T12:32:12;0.60;;;0.50;;
43327;SDS011;28923;45.412;10.852;2023-05-02T12:34:38;0.55;;;0.30;;
43327;SDS011;28923;45.412;10.852;2023-05-02T12:37:06;0.70;;;0.30;;
43327;SDS011;28923;45.412;10.852;2023-05-02T12:39:38;0.40;;;0.38;;
43327;SDS011;28923;45.412;10.852;2023-05-02T12:42:08;1.52;;;0.32;;
43327;SDS011;28923;45.412;10.852;2023-05-02T12:44:36;0.50;;;0.30;;
43327;SDS011;28923;45.412;10.852;2023-05-02T12:47:03;0.30;;;0.30;;
43327;SDS011;28923;45.412;10.852;2023-05-02T12:49:29;0.73;;;0.30;;
43327;SDS011;28923;45.412;10.852;2023-05-02T12:51:56;0.52;;;0.40;;
43327;SDS011;28923;45.412;10.852;2023-05-02T12:54:22;0.30;;;0.30;;
43327;SDS011;28923;45.412;10.852;2023-05-02T12:56:50;0.63;;;0.30;;
43327;SDS011;28923;45.412;10.852;2023-05-02T12:59:37;0.43;;;0.30;;
43327;SDS011;28923;45.412;10.852;2023-05-02T13:02:02;1.40;;;0.40;;
43327;SDS011;28923;45.412;10.852;2023-05-02T13:04:32;0.30;;;0.30;;
43327;SDS011;28923;45.412;10.852;2023-05-02T13:06:58;0.70;;;0.40;;
43327;SDS011;28923;45.412;10.852;2023-05-02T13:09:25;0.98;;;0.40;;
43327;SDS011;28923;45.412;10.852;2023-05-02T13:11:51;0.20;;;0.20;;
43327;SDS011;28923;45.412;10.852;2023-05-02T13:14:18;1.27;;;0.40;;
43327;SDS011;28923;45.412;10.852;2023-05-02T13:16:44;0.50;;;0.50;;
43327;SDS011;28923;45.412;10.852;2023-05-02T13:19:10;1.05;;;0.50;;
43327;SDS011;28923;45.412;10.852;2023-05-02T13:21:36;0.95;;;0.30;;
43327;SDS011;28923;45.412;10.852;2023-05-02T13:24:03;0.22;;;0.22;;
43327;SDS011;28923;45.412;10.852;2023-05-02T13:26:28;2.25;;;0.40;;
43327;SDS011;28923;45.412;10.852;2023-05-02T13:28:54;0.30;;;0.30;;
43327;SDS011;28923;45.412;10.852;2023-05-02T13:31:20;0.47;;;0.30;;
43327;SDS011;28923;45.412;10.852;2023-05-02T13:33:46;0.52;;;0.30;;
43327;SDS011;28923;45.412;10.852;2023-05-02T13:36:12;1.00;;;0.50;;
43327;SDS011;28923;45.412;10.852;2023-05-02T13:38:37;0.40;;;0.40;;
43327;SDS011;28923;45.412;10.852;2023-05-02T13:41:03;2.35;;;0.63;;
43327;SDS011;28923;45.412;10.852;2023-05-02T13:43:29;1.83;;;0.38;;
43327;SDS011;28923;45.412;10.852;2023-05-02T13:45:55;0.60;;;0.40;;
43327;SDS011;28923;45.412;10.852;2023-05-02T13:48:20;0.50;;;0.40;;
43327;SDS011;28923;45.412;10.852;2023-05-02T13:50:46;1.60;;;0.40;;
43327;SDS011;28923;45.412;10.852;2023-05-02T13:53:12;0.80;;;0.40;;
43327;SDS011;28923;45.412;10.852;2023-05-02T13:55:37;0.30;;;0.30;;
43327;SDS011;28923;45.412;10.852;2023-05-02T13:58:03;0.40;;;0.40;;
43327;SDS011;28923;45.412;10.852;2023-05-02T14:00:30;0.32;;;0.30;;
43327;SDS011;28923;45.412;10.852;2023-05-02T14:02:55;1.05;;;0.40;;
43327;SDS011;28923;45.412;10.852;2023-05-02T14:05:21;0.20;;;0.20;;
43327;SDS011;28923;45.412;10.852;2023-05-02T14:07:48;2.15;;;0.50;;
43327;SDS011;28923;45.412;10.852;2023-05-02T14:10:13;2.40;;;0.22;;
43327;SDS011;28923;45.412;10.852;2023-05-02T14:12:39;0.30;;;0.30;;
43327;SDS011;28923;45.412;10.852;2023-05-02T14:15:06;0.40;;;0.40;;
43327;SDS011;28923;45.412;10.852;2023-05-02T14:17:34;1.45;;;0.40;;
43327;SDS011;28923;45.412;10.852;2023-05-02T14:20:06;0.52;;;0.20;;
43327;SDS011;28923;45.412;10.852;2023-05-02T14:22:34;0.55;;;0.50;;
43327;SDS011;28923;45.412;10.852;2023-05-02T14:25:00;0.88;;;0.30;;
43327;SDS011;28923;45.412;10.852;2023-05-02T14:27:26;2.90;;;0.40;;
43327;SDS011;28923;45.412;10.852;2023-05-02T14:29:52;1.90;;;0.30;;
43327;SDS011;28923;45.412;10.852;2023-05-02T14:32:18;0.40;;;0.40;;
43327;SDS011;28923;45.412;10.852;2023-05-02T14:34:43;1.15;;;0.40;;
43327;SDS011;28923;45.412;10.852;2023-05-02T14:37:08;0.32;;;0.30;;
43327;SDS011;28923;45.412;10.852;2023-05-02T14:39:34;0.40;;;0.30;;
43327;SDS011;28923;45.412;10.852;2023-05-02T14:42:00;0.70;;;0.32;;
43327;SDS011;28923;45.412;10.852;2023-05-02T14:44:28;1.58;;;0.35;;
43327;SDS011;28923;45.412;10.852;2023-05-02T14:46:54;1.15;;;0.40;;
43327;SDS011;28923;45.412;10.852;2023-05-02T14:49:20;0.30;;;0.30;;
43327;SDS011;28923;45.412;10.852;2023-05-02T14:51:45;0.50;;;0.35;;
43327;SDS011;28923;45.412;10.852;2023-05-02T14:54:13;1.17;;;0.20;;
43327;SDS011;28923;45.412;10.852;2023-05-02T14:56:40;0.43;;;0.30;;
43327;SDS011;28923;45.412;10.852;2023-05-02T14:59:06;0.63;;;0.40;;
43327;SDS011;28923;45.412;10.852;2023-05-02T15:01:31;0.40;;;0.30;;
43327;SDS011;28923;45.412;10.852;2023-05-02T15:03:57;0.65;;;0.28;;
43327;SDS011;28923;45.412;10.852;2023-05-02T15:06:22;0.65;;;0.30;;
43327;SDS011;28923;45.412;10.852;2023-05-02T15:08:47;1.02;;;0.40;;
43327;SDS011;28923;45.412;10.852;2023-05-02T15:11:14;0.40;;;0.40;;
43327;SDS011;28923;45.412;10.852;2023-05-02T15:13:40;0.30;;;0.30;;